sensor_id;sensor_type;location;lat;lon;timestamp;P1;durP1;ratioP1;P2;durP2;ratioP2
71963;SDS011;59834;52.124;5.422;2023-07-29T00:02:16;2.70;;;0.57;;
71963;SDS011;59834;52.124;5.422;2023-07-29T00:04:43;1.30;;;0.20;;
71963;SDS011;59834;52.124;5.422;2023-07-29T00:07:10;0.70;;;0.20;;
71963;SDS011;59834;52.124;5.422;2023-07-29T00:09:37;3.63;;;0.20;;
71963;SDS011;59834;52.124;5.422;2023-07-29T00:12:04;1.23;;;0.50;;
71963;SDS011;59834;52.124;5.422;2023-07-29T00:14:31;0.80;;;0.20;;
71963;SDS011;59834;52.124;5.422;2023-07-29T00:16:58;2.03;;;0.40;;
71963;SDS011;59834;52.124;5.422;2023-07-29T00:19:24;3.08;;;0.30;;
71963;SDS011;59834;52.124;5.422;2023-07-29T00:21:51;1.25;;;0.20;;
71963;SDS011;59834;52.124;5.422;2023-07-29T00:24:17;0.90;;;0.27;;
71963;SDS011;59834;52.124;5.422;2023-07-29T00:26:44;1.98;;;0.65;;
71963;SDS011;59834;52.124;5.422;2023-07-29T00:29:11;0.77;;;0.40;;
71963;SDS011;59834;52.124;5.422;2023-07-29T00:31:37;1.15;;;0.30;;
71963;SDS011;59834;52.124;5.422;2023-07-29T00:34:04;1.23;;;0.32;;
71963;SDS011;59834;52.124;5.422;2023-07-29T00:36:31;0.97;;;0.20;;
71963;SDS011;59834;52.124;5.422;2023-07-29T00:38:57;1.70;;;0.22;;
71963;SDS011;59834;52.124;5.422;2023-07-29T00:41:24;3.67;;;0.30;;
71963;SDS011;59834;52.124;5.422;2023-07-29T00:43:52;1.20;;;0.32;;
71963;SDS011;59834;52.124;5.422;2023-07-29T00:46:19;1.50;;;0.30;;
71963;SDS011;59834;52.124;5.422;2023-07-29T00:48:46;5.53;;;0.40;;
71963;SDS011;59834;52.124;5.422;2023-07-29T00:51:14;2.08;;;0.10;;
71963;SDS011;59834;52.124;5.422;2023-07-29T00:53:41;1.10;;;0.30;;
71963;SDS011;59834;52.124;5.422;2023-07-29T00:56:07;1.70;;;0.20;;
71963;SDS011;59834;52.124;5.422;2023-07-29T00:58:34;1.08;;;0.20;;
71963;SDS011;59834;52.124;5.422;2023-07-29T01:01:01;0.77;;;0.20;;
71963;SDS011;59834;52.124;5.422;2023-07-29T01:03:28;1.60;;;0.30;;
71963;SDS011;59834;52.124;5.422;2023-07-29T01:14:39;1.60;;;0.30;;
71963;SDS011;59834;52.124;5.422;2023-07-29T01:17:15;3.90;;;0.63;;
71963;SDS011;59834;52.124;5.422;2023-07-29T01:20:06;1.98;;;0.30;;
71963;SDS011;59834;52.124;5.422;2023-07-29T01:22:36;1.27;;;0.50;;
71963;SDS011;59834;52.124;5.422;2023-07-29T01:25:03;1.23;;;0.40;;
71963;SDS011;59834;52.124;5.422;2023-07-29T01:27:30;1.43;;;0.30;;
71963;SDS011;59834;52.124;5.422;2023-07-29T01:29:57;2.70;;;0.50;;
71963;SDS011;59834;52.124;5.422;2023-07-29T01:32:28;3.17;;;0.57;;
71963;SDS011;59834;52.124;5.422;2023-07-29T01:35:21;1.05;;;0.38;;
71963;SDS011;59834;52.124;5.422;2023-07-29T01:37:55;3.28;;;0.40;;
71963;SDS011;59834;52.124;5.422;2023-07-29T01:40:35;1.90;;;0.40;;
71963;SDS011;59834;52.124;5.422;2023-07-29T01:43:02;2.83;;;0.60;;
71963;SDS011;59834;52.124;5.422;2023-07-29T01:45:29;3.92;;;0.50;;
71963;SDS011;59834;52.124;5.422;2023-07-29T01:47:58;2.05;;;0.70;;
71963;SDS011;59834;52.124;5.422;2023-07-29T01:50:24;2.42;;;0.77;;
71963;SDS011;59834;52.124;5.422;2023-07-29T01:52:51;2.40;;;0.50;;
71963;SDS011;59834;52.124;5.422;2023-07-29T01:55:20;2.17;;;0.80;;
71963;SDS011;59834;52.124;5.422;2023-07-29T01:57:47;3.40;;;0.70;;
71963;SDS011;59834;52.124;5.422;2023-07-29T02:00:14;1.30;;;0.60;;
71963;SDS011;59834;52.124;5.422;2023-07-29T02:02:41;2.60;;;0.93;;
71963;SDS011;59834;52.124;5.422;2023-07-29T02:05:08;4.93;;;1.30;;
71963;SDS011;59834;52.124;5.422;2023-07-29T02:07:34;5.40;;;1.30;;
71963;SDS011;59834;52.124;5.422;2023-07-29T02:10:01;2.83;;;1.10;;
71963;SDS011;59834;52.124;5.422;2023-07-29T02:12:28;5.88;;;1.08;;
71963;SDS011;59834;52.124;5.422;2023-07-29T02:14:54;3.03;;;1.05;;
71963;SDS011;59834;52.124;5.422;2023-07-29T02:17:21;5.50;;;0.67;;
71963;SDS011;59834;52.124;5.422;2023-07-29T02:19:48;4.45;;;0.85;;
71963;SDS011;59834;52.124;5.422;2023-07-29T02:22:16;4.57;;;1.08;;
71963;SDS011;59834;52.124;5.422;2023-07-29T02:24:44;4.90;;;1.10;;
71963;SDS011;59834;52.124;5.422;2023-07-29T02:27:11;3.78;;;1.00;;
71963;SDS011;59834;52.124;5.422;2023-07-29T02:29:38;3.40;;;1.40;;
71963;SDS011;59834;52.124;5.422;2023-07-29T02:32:04;3.63;;;1.60;;
71963;SDS011;59834;52.124;5.422;2023-07-29T02:34:31;4.47;;;1.40;;
71963;SDS011;59834;52.124;5.422;2023-07-29T02:36:58;2.42;;;1.38;;
71963;SDS011;59834;52.124;5.422;2023-07-29T02:39:24;4.10;;;1.15;;
71963;SDS011;59834;52.124;5.422;2023-07-29T02:41:51;5.80;;;1.60;;
71963;SDS011;59834;52.124;5.422;2023-07-29T02:44:18;9.65;;;2.10;;
71963;SDS011;59834;52.124;5.422;2023-07-29T02:46:45;3.47;;;1.85;;
71963;SDS011;59834;52.124;5.422;2023-07-29T02:49:12;5.30;;;1.95;;
71963;SDS011;59834;52.124;5.422;2023-07-29T02:51:39;4.90;;;1.73;;
71963;SDS011;59834;52.124;5.422;2023-07-29T02:54:05;5.37;;;2.00;;
71963;SDS011;59834;52.124;5.422;2023-07-29T02:56:32;4.75;;;2.47;;
71963;SDS011;59834;52.124;5.422;2023-07-29T02:58:59;3.10;;;1.67;;
71963;SDS011;59834;52.124;5.422;2023-07-29T03:01:26;5.10;;;2.03;;
71963;SDS011;59834;52.124;5.422;2023-07-29T03:03:53;3.65;;;2.22;;
71963;SDS011;59834;52.124;5.422;2023-07-29T03:06:19;5.67;;;1.50;;
71963;SDS011;59834;52.124;5.422;2023-07-29T03:08:46;2.75;;;1.50;;
71963;SDS011;59834;52.124;5.422;2023-07-29T03:11:13;3.13;;;1.60;;
71963;SDS011;59834;52.124;5.422;2023-07-29T03:13:42;4.40;;;2.03;;
71963;SDS011;59834;52.124;5.422;2023-07-29T03:16:13;4.47;;;1.85;;
71963;SDS011;59834;52.124;5.422;2023-07-29T03:18:44;4.30;;;1.90;;
71963;SDS011;59834;52.124;5.422;2023-07-29T03:21:11;2.90;;;1.60;;
71963;SDS011;59834;52.124;5.422;2023-07-29T03:23:37;3.80;;;2.03;;
71963;SDS011;59834;52.124;5.422;2023-07-29T03:26:04;6.38;;;1.92;;
71963;SDS011;59834;52.124;5.422;2023-07-29T03:28:37;3.80;;;1.67;;
71963;SDS011;59834;52.124;5.422;2023-07-29T03:31:05;2.90;;;1.80;;
71963;SDS011;59834;52.124;5.422;2023-07-29T03:33:32;5.57;;;2.00;;
71963;SDS011;59834;52.124;5.422;2023-07-29T03:35:59;3.50;;;1.77;;
71963;SDS011;59834;52.124;5.422;2023-07-29T03:38:26;5.30;;;2.03;;
71963;SDS011;59834;52.124;5.422;2023-07-29T03:40:53;4.82;;;1.63;;
71963;SDS011;59834;52.124;5.422;2023-07-29T03:43:21;2.93;;;1.57;;
71963;SDS011;59834;52.124;5.422;2023-07-29T03:45:47;4.35;;;1.88;;
71963;SDS011;59834;52.124;5.422;2023-07-29T03:48:14;3.33;;;1.45;;
71963;SDS011;59834;52.124;5.422;2023-07-29T03:50:41;6.55;;;1.83;;
71963;SDS011;59834;52.124;5.422;2023-07-29T03:53:07;3.28;;;1.58;;
71963;SDS011;59834;52.124;5.422;2023-07-29T03:55:36;4.40;;;1.97;;
71963;SDS011;59834;52.124;5.422;2023-07-29T03:58:03;4.55;;;1.52;;
71963;SDS011;59834;52.124;5.422;2023-07-29T04:00:29;2.67;;;1.60;;
71963;SDS011;59834;52.124;5.422;2023-07-29T04:02:57;3.20;;;1.45;;
71963;SDS011;59834;52.124;5.422;2023-07-29T04:05:24;4.05;;;1.38;;
71963;SDS011;59834;52.124;5.422;2023-07-29T04:07:51;3.10;;;1.10;;
71963;SDS011;59834;52.124;5.422;2023-07-29T04:10:20;5.18;;;1.20;;
71963;SDS011;59834;52.124;5.422;2023-07-29T04:12:46;2.70;;;1.20;;
71963;SDS011;59834;52.124;5.422;2023-07-29T04:15:13;3.55;;;1.20;;
71963;SDS011;59834;52.124;5.422;2023-07-29T04:17:39;4.40;;;1.20;;
71963;SDS011;59834;52.124;5.422;2023-07-29T04:20:07;2.37;;;1.20;;
71963;SDS011;59834;52.124;5.422;2023-07-29T04:22:34;2.53;;;1.00;;
71963;SDS011;59834;52.124;5.422;2023-07-29T04:25:01;2.83;;;0.93;;
71963;SDS011;59834;52.124;5.422;2023-07-29T04:27:27;2.08;;;0.80;;
71963;SDS011;59834;52.124;5.422;2023-07-29T04:29:54;2.13;;;0.80;;
71963;SDS011;59834;52.124;5.422;2023-07-29T04:32:20;1.60;;;0.70;;
71963;SDS011;59834;52.124;5.422;2023-07-29T04:34:48;2.42;;;0.52;;
71963;SDS011;59834;52.124;5.422;2023-07-29T04:37:14;2.63;;;0.88;;
71963;SDS011;59834;52.124;5.422;2023-07-29T04:39:41;3.28;;;1.17;;
71963;SDS011;59834;52.124;5.422;2023-07-29T04:42:07;4.90;;;0.85;;
71963;SDS011;59834;52.124;5.422;2023-07-29T04:44:34;2.10;;;0.50;;
71963;SDS011;59834;52.124;5.422;2023-07-29T04:47:01;1.42;;;0.50;;
71963;SDS011;59834;52.124;5.422;2023-07-29T04:49:28;1.75;;;0.60;;
71963;SDS011;59834;52.124;5.422;2023-07-29T04:51:55;2.75;;;0.73;;
71963;SDS011;59834;52.124;5.422;2023-07-29T04:54:21;3.00;;;0.80;;
71963;SDS011;59834;52.124;5.422;2023-07-29T04:56:48;2.70;;;0.70;;
71963;SDS011;59834;52.124;5.422;2023-07-29T04:59:15;2.80;;;0.60;;
71963;SDS011;59834;52.124;5.422;2023-07-29T05:01:42;1.42;;;0.60;;
71963;SDS011;59834;52.124;5.422;2023-07-29T05:04:09;2.03;;;0.57;;
71963;SDS011;59834;52.124;5.422;2023-07-29T05:06:36;1.95;;;0.50;;
71963;SDS011;59834;52.124;5.422;2023-07-29T05:09:13;1.37;;;0.40;;
71963;SDS011;59834;52.124;5.422;2023-07-29T05:11:44;2.80;;;1.27;;
71963;SDS011;59834;52.124;5.422;2023-07-29T05:14:16;2.22;;;0.60;;
71963;SDS011;59834;52.124;5.422;2023-07-29T05:16:44;2.50;;;0.55;;
71963;SDS011;59834;52.124;5.422;2023-07-29T05:19:11;2.85;;;1.73;;
71963;SDS011;59834;52.124;5.422;2023-07-29T05:21:38;4.43;;;1.00;;
71963;SDS011;59834;52.124;5.422;2023-07-29T05:24:05;2.03;;;0.82;;
71963;SDS011;59834;52.124;5.422;2023-07-29T05:26:32;1.25;;;0.50;;
71963;SDS011;59834;52.124;5.422;2023-07-29T05:28:58;2.90;;;0.85;;
71963;SDS011;59834;52.124;5.422;2023-07-29T05:31:25;2.45;;;0.90;;
71963;SDS011;59834;52.124;5.422;2023-07-29T05:33:52;2.97;;;0.90;;
71963;SDS011;59834;52.124;5.422;2023-07-29T05:36:18;4.68;;;0.68;;
71963;SDS011;59834;52.124;5.422;2023-07-29T05:38:45;3.92;;;0.70;;
71963;SDS011;59834;52.124;5.422;2023-07-29T05:41:12;4.82;;;0.93;;
71963;SDS011;59834;52.124;5.422;2023-07-29T05:43:39;2.17;;;0.70;;
71963;SDS011;59834;52.124;5.422;2023-07-29T05:46:06;3.20;;;0.83;;
71963;SDS011;59834;52.124;5.422;2023-07-29T05:48:33;2.75;;;1.15;;
71963;SDS011;59834;52.124;5.422;2023-07-29T05:51:00;3.28;;;0.85;;
71963;SDS011;59834;52.124;5.422;2023-07-29T05:53:26;3.53;;;0.98;;
71963;SDS011;59834;52.124;5.422;2023-07-29T05:55:53;2.22;;;1.15;;
71963;SDS011;59834;52.124;5.422;2023-07-29T05:58:19;4.20;;;1.30;;
71963;SDS011;59834;52.124;5.422;2023-07-29T06:00:47;3.13;;;1.60;;
71963;SDS011;59834;52.124;5.422;2023-07-29T06:03:13;3.58;;;1.10;;
71963;SDS011;59834;52.124;5.422;2023-07-29T06:05:41;2.08;;;1.50;;
71963;SDS011;59834;52.124;5.422;2023-07-29T06:08:07;3.28;;;1.38;;
71963;SDS011;59834;52.124;5.422;2023-07-29T06:10:34;2.97;;;1.50;;
71963;SDS011;59834;52.124;5.422;2023-07-29T06:13:01;4.43;;;1.30;;
71963;SDS011;59834;52.124;5.422;2023-07-29T06:15:28;3.38;;;1.55;;
71963;SDS011;59834;52.124;5.422;2023-07-29T06:17:54;2.30;;;1.02;;
71963;SDS011;59834;52.124;5.422;2023-07-29T06:20:23;3.03;;;1.30;;
71963;SDS011;59834;52.124;5.422;2023-07-29T06:22:50;3.73;;;1.57;;
71963;SDS011;59834;52.124;5.422;2023-07-29T06:25:19;2.58;;;1.45;;
71963;SDS011;59834;52.124;5.422;2023-07-29T06:27:47;3.92;;;1.60;;
71963;SDS011;59834;52.124;5.422;2023-07-29T06:30:15;3.97;;;1.42;;
71963;SDS011;59834;52.124;5.422;2023-07-29T06:32:42;4.30;;;1.20;;
71963;SDS011;59834;52.124;5.422;2023-07-29T06:35:09;4.47;;;1.50;;
71963;SDS011;59834;52.124;5.422;2023-07-29T06:37:36;4.18;;;1.70;;
71963;SDS011;59834;52.124;5.422;2023-07-29T06:40:03;2.88;;;1.40;;
71963;SDS011;59834;52.124;5.422;2023-07-29T06:42:31;4.32;;;1.35;;
71963;SDS011;59834;52.124;5.422;2023-07-29T06:44:58;4.32;;;1.55;;
71963;SDS011;59834;52.124;5.422;2023-07-29T06:47:24;7.80;;;1.80;;
71963;SDS011;59834;52.124;5.422;2023-07-29T06:49:51;3.38;;;1.85;;
71963;SDS011;59834;52.124;5.422;2023-07-29T06:52:18;3.63;;;1.58;;
71963;SDS011;59834;52.124;5.422;2023-07-29T06:54:44;3.85;;;1.77;;
71963;SDS011;59834;52.124;5.422;2023-07-29T06:57:11;4.57;;;1.25;;
71963;SDS011;59834;52.124;5.422;2023-07-29T06:59:38;6.67;;;2.50;;
71963;SDS011;59834;52.124;5.422;2023-07-29T07:02:06;3.53;;;1.40;;
71963;SDS011;59834;52.124;5.422;2023-07-29T07:04:34;4.53;;;1.73;;
71963;SDS011;59834;52.124;5.422;2023-07-29T07:07:00;3.67;;;2.15;;
71963;SDS011;59834;52.124;5.422;2023-07-29T07:09:27;4.85;;;1.70;;
71963;SDS011;59834;52.124;5.422;2023-07-29T07:11:54;3.27;;;2.03;;
71963;SDS011;59834;52.124;5.422;2023-07-29T07:14:20;7.43;;;1.90;;
71963;SDS011;59834;52.124;5.422;2023-07-29T07:16:47;3.53;;;1.83;;
71963;SDS011;59834;52.124;5.422;2023-07-29T07:19:14;3.95;;;2.08;;
71963;SDS011;59834;52.124;5.422;2023-07-29T07:21:40;5.43;;;1.80;;
71963;SDS011;59834;52.124;5.422;2023-07-29T07:24:07;3.33;;;1.73;;
71963;SDS011;59834;52.124;5.422;2023-07-29T07:26:34;3.97;;;1.90;;
71963;SDS011;59834;52.124;5.422;2023-07-29T07:29:01;2.92;;;1.83;;
71963;SDS011;59834;52.124;5.422;2023-07-29T07:31:28;2.47;;;2.20;;
71963;SDS011;59834;52.124;5.422;2023-07-29T07:33:54;3.25;;;2.03;;
71963;SDS011;59834;52.124;5.422;2023-07-29T07:36:22;5.00;;;2.23;;
71963;SDS011;59834;52.124;5.422;2023-07-29T07:38:50;3.83;;;1.60;;
71963;SDS011;59834;52.124;5.422;2023-07-29T07:41:17;6.50;;;2.20;;
71963;SDS011;59834;52.124;5.422;2023-07-29T07:43:46;3.50;;;1.48;;
71963;SDS011;59834;52.124;5.422;2023-07-29T07:46:15;4.15;;;1.98;;
71963;SDS011;59834;52.124;5.422;2023-07-29T07:48:42;7.13;;;1.67;;
71963;SDS011;59834;52.124;5.422;2023-07-29T07:51:12;5.78;;;1.95;;
71963;SDS011;59834;52.124;5.422;2023-07-29T07:53:39;3.30;;;1.75;;
71963;SDS011;59834;52.124;5.422;2023-07-29T07:56:06;4.22;;;2.17;;
71963;SDS011;59834;52.124;5.422;2023-07-29T07:58:33;3.97;;;1.85;;
71963;SDS011;59834;52.124;5.422;2023-07-29T08:01:01;4.73;;;1.80;;
71963;SDS011;59834;52.124;5.422;2023-07-29T08:03:32;3.30;;;1.80;;
71963;SDS011;59834;52.124;5.422;2023-07-29T08:05:59;2.55;;;1.63;;
71963;SDS011;59834;52.124;5.422;2023-07-29T08:08:26;5.60;;;2.08;;
71963;SDS011;59834;52.124;5.422;2023-07-29T08:10:58;3.33;;;1.60;;
71963;SDS011;59834;52.124;5.422;2023-07-29T08:13:25;4.53;;;1.40;;
71963;SDS011;59834;52.124;5.422;2023-07-29T08:15:52;4.28;;;1.40;;
71963;SDS011;59834;52.124;5.422;2023-07-29T08:18:19;2.35;;;1.10;;
71963;SDS011;59834;52.124;5.422;2023-07-29T08:23:22;1.85;;;1.63;;
71963;SDS011;59834;52.124;5.422;2023-07-29T08:25:58;2.50;;;1.20;;
71963;SDS011;59834;52.124;5.422;2023-07-29T08:28:33;2.50;;;1.08;;
71963;SDS011;59834;52.124;5.422;2023-07-29T08:31:02;2.22;;;1.20;;
71963;SDS011;59834;52.124;5.422;2023-07-29T08:33:30;2.20;;;1.08;;
71963;SDS011;59834;52.124;5.422;2023-07-29T08:35:57;7.03;;;1.25;;
71963;SDS011;59834;52.124;5.422;2023-07-29T08:38:24;3.00;;;1.10;;
71963;SDS011;59834;52.124;5.422;2023-07-29T08:46:39;2.13;;;0.90;;
71963;SDS011;59834;52.124;5.422;2023-07-29T08:49:06;1.20;;;0.65;;
71963;SDS011;59834;52.124;5.422;2023-07-29T08:51:33;2.27;;;1.07;;
71963;SDS011;59834;52.124;5.422;2023-07-29T08:54:01;4.57;;;0.73;;
71963;SDS011;59834;52.124;5.422;2023-07-29T08:56:28;6.00;;;0.90;;
71963;SDS011;59834;52.124;5.422;2023-07-29T08:59:08;1.58;;;0.65;;
71963;SDS011;59834;52.124;5.422;2023-07-29T09:01:39;5.38;;;0.75;;
71963;SDS011;59834;52.124;5.422;2023-07-29T09:04:06;3.63;;;0.93;;
71963;SDS011;59834;52.124;5.422;2023-07-29T09:06:32;1.73;;;0.47;;
71963;SDS011;59834;52.124;5.422;2023-07-29T09:09:01;2.03;;;0.60;;
71963;SDS011;59834;52.124;5.422;2023-07-29T09:11:28;2.30;;;0.98;;
71963;SDS011;59834;52.124;5.422;2023-07-29T09:13:56;2.97;;;0.80;;
71963;SDS011;59834;52.124;5.422;2023-07-29T09:16:25;2.23;;;0.70;;
71963;SDS011;59834;52.124;5.422;2023-07-29T09:18:52;4.20;;;0.98;;
71963;SDS011;59834;52.124;5.422;2023-07-29T09:21:22;2.03;;;0.80;;
71963;SDS011;59834;52.124;5.422;2023-07-29T09:23:51;5.22;;;0.95;;
71963;SDS011;59834;52.124;5.422;2023-07-29T09:26:28;3.90;;;1.00;;
71963;SDS011;59834;52.124;5.422;2023-07-29T09:28:55;2.20;;;0.87;;
71963;SDS011;59834;52.124;5.422;2023-07-29T09:31:27;2.40;;;1.30;;
71963;SDS011;59834;52.124;5.422;2023-07-29T09:34:01;4.90;;;1.50;;
71963;SDS011;59834;52.124;5.422;2023-07-29T09:36:30;2.63;;;0.80;;
71963;SDS011;59834;52.124;5.422;2023-07-29T09:38:59;2.22;;;0.80;;
71963;SDS011;59834;52.124;5.422;2023-07-29T09:41:27;4.73;;;0.90;;
71963;SDS011;59834;52.124;5.422;2023-07-29T09:43:57;7.72;;;1.17;;
71963;SDS011;59834;52.124;5.422;2023-07-29T09:46:32;3.25;;;1.15;;
71963;SDS011;59834;52.124;5.422;2023-07-29T09:49:02;4.03;;;1.23;;
71963;SDS011;59834;52.124;5.422;2023-07-29T09:51:36;5.05;;;1.23;;
71963;SDS011;59834;52.124;5.422;2023-07-29T09:54:04;3.90;;;1.30;;
71963;SDS011;59834;52.124;5.422;2023-07-29T09:56:31;1.60;;;1.00;;
71963;SDS011;59834;52.124;5.422;2023-07-29T09:58:57;2.30;;;1.02;;
71963;SDS011;59834;52.124;5.422;2023-07-29T10:01:24;1.60;;;1.08;;
71963;SDS011;59834;52.124;5.422;2023-07-29T10:03:52;3.10;;;1.38;;
71963;SDS011;59834;52.124;5.422;2023-07-29T10:06:20;3.77;;;1.40;;
71963;SDS011;59834;52.124;5.422;2023-07-29T10:08:48;2.42;;;1.50;;
71963;SDS011;59834;52.124;5.422;2023-07-29T10:11:16;11.32;;;2.40;;
71963;SDS011;59834;52.124;5.422;2023-07-29T10:13:49;4.47;;;1.67;;
71963;SDS011;59834;52.124;5.422;2023-07-29T10:16:34;3.65;;;1.90;;
71963;SDS011;59834;52.124;5.422;2023-07-29T10:19:06;6.30;;;1.70;;
71963;SDS011;59834;52.124;5.422;2023-07-29T10:21:39;4.85;;;1.92;;
71963;SDS011;59834;52.124;5.422;2023-07-29T10:24:09;3.92;;;1.58;;
71963;SDS011;59834;52.124;5.422;2023-07-29T10:26:41;7.35;;;2.83;;
71963;SDS011;59834;52.124;5.422;2023-07-29T10:29:14;10.57;;;2.08;;
71963;SDS011;59834;52.124;5.422;2023-07-29T10:31:47;4.07;;;2.20;;
71963;SDS011;59834;52.124;5.422;2023-07-29T10:34:19;3.40;;;1.83;;
71963;SDS011;59834;52.124;5.422;2023-07-29T10:36:49;3.85;;;1.55;;
71963;SDS011;59834;52.124;5.422;2023-07-29T10:39:19;3.08;;;1.85;;
71963;SDS011;59834;52.124;5.422;2023-07-29T10:41:56;2.92;;;2.00;;
71963;SDS011;59834;52.124;5.422;2023-07-29T10:47:14;3.28;;;2.17;;
71963;SDS011;59834;52.124;5.422;2023-07-29T10:49:45;2.90;;;1.80;;
71963;SDS011;59834;52.124;5.422;2023-07-29T10:52:27;5.38;;;2.50;;
71963;SDS011;59834;52.124;5.422;2023-07-29T10:54:55;1.98;;;1.50;;
71963;SDS011;59834;52.124;5.422;2023-07-29T10:57:31;4.53;;;2.67;;
71963;SDS011;59834;52.124;5.422;2023-07-29T10:59:59;2.30;;;1.80;;
71963;SDS011;59834;52.124;5.422;2023-07-29T11:02:31;2.65;;;1.55;;
71963;SDS011;59834;52.124;5.422;2023-07-29T11:05:22;2.00;;;1.10;;
71963;SDS011;59834;52.124;5.422;2023-07-29T11:07:48;1.83;;;1.20;;
71963;SDS011;59834;52.124;5.422;2023-07-29T11:10:16;3.10;;;0.70;;
71963;SDS011;59834;52.124;5.422;2023-07-29T11:17:43;1.75;;;0.65;;
71963;SDS011;59834;52.124;5.422;2023-07-29T11:20:12;0.90;;;0.47;;
71963;SDS011;59834;52.124;5.422;2023-07-29T11:22:39;2.00;;;0.40;;
71963;SDS011;59834;52.124;5.422;2023-07-29T11:25:10;0.70;;;0.30;;
71963;SDS011;59834;52.124;5.422;2023-07-29T11:27:39;3.22;;;0.40;;
71963;SDS011;59834;52.124;5.422;2023-07-29T11:30:07;0.95;;;0.50;;
71963;SDS011;59834;52.124;5.422;2023-07-29T11:32:38;3.53;;;0.40;;
71963;SDS011;59834;52.124;5.422;2023-07-29T11:35:13;1.75;;;1.10;;
71963;SDS011;59834;52.124;5.422;2023-07-29T11:37:44;1.43;;;0.50;;
71963;SDS011;59834;52.124;5.422;2023-07-29T11:40:22;3.83;;;0.80;;
71963;SDS011;59834;52.124;5.422;2023-07-29T11:42:52;0.73;;;0.32;;
71963;SDS011;59834;52.124;5.422;2023-07-29T11:45:19;3.35;;;0.40;;
71963;SDS011;59834;52.124;5.422;2023-07-29T11:47:51;0.60;;;0.30;;
71963;SDS011;59834;52.124;5.422;2023-07-29T11:50:18;2.30;;;0.40;;
71963;SDS011;59834;52.124;5.422;2023-07-29T11:52:45;1.23;;;0.30;;
71963;SDS011;59834;52.124;5.422;2023-07-29T11:55:13;1.02;;;0.38;;
71963;SDS011;59834;52.124;5.422;2023-07-29T11:57:42;2.00;;;0.30;;
71963;SDS011;59834;52.124;5.422;2023-07-29T12:00:09;0.90;;;0.40;;
71963;SDS011;59834;52.124;5.422;2023-07-29T12:02:39;1.08;;;0.40;;
71963;SDS011;59834;52.124;5.422;2023-07-29T12:05:08;2.28;;;0.57;;
71963;SDS011;59834;52.124;5.422;2023-07-29T12:07:39;1.15;;;0.40;;
71963;SDS011;59834;52.124;5.422;2023-07-29T12:10:07;1.42;;;0.50;;
71963;SDS011;59834;52.124;5.422;2023-07-29T12:12:43;1.77;;;0.53;;
71963;SDS011;59834;52.124;5.422;2023-07-29T12:15:23;1.00;;;0.40;;
71963;SDS011;59834;52.124;5.422;2023-07-29T12:17:55;1.60;;;0.50;;
71963;SDS011;59834;52.124;5.422;2023-07-29T12:20:23;1.00;;;0.50;;
71963;SDS011;59834;52.124;5.422;2023-07-29T12:22:56;1.63;;;0.50;;
71963;SDS011;59834;52.124;5.422;2023-07-29T12:25:23;2.73;;;0.60;;
71963;SDS011;59834;52.124;5.422;2023-07-29T12:27:51;1.40;;;0.60;;
71963;SDS011;59834;52.124;5.422;2023-07-29T12:30:21;3.88;;;0.93;;
71963;SDS011;59834;52.124;5.422;2023-07-29T12:32:49;1.85;;;0.82;;
71963;SDS011;59834;52.124;5.422;2023-07-29T12:35:16;2.40;;;0.90;;
71963;SDS011;59834;52.124;5.422;2023-07-29T12:37:43;2.50;;;0.50;;
71963;SDS011;59834;52.124;5.422;2023-07-29T12:40:22;1.27;;;0.40;;
71963;SDS011;59834;52.124;5.422;2023-07-29T12:42:52;2.45;;;0.68;;
71963;SDS011;59834;52.124;5.422;2023-07-29T12:45:20;1.17;;;0.40;;
71963;SDS011;59834;52.124;5.422;2023-07-29T12:47:49;1.17;;;0.70;;
71963;SDS011;59834;52.124;5.422;2023-07-29T12:50:16;4.70;;;0.60;;
71963;SDS011;59834;52.124;5.422;2023-07-29T12:52:43;0.80;;;0.47;;
71963;SDS011;59834;52.124;5.422;2023-07-29T12:55:09;2.30;;;0.82;;
71963;SDS011;59834;52.124;5.422;2023-07-29T12:57:40;4.57;;;0.60;;
71963;SDS011;59834;52.124;5.422;2023-07-29T13:00:09;3.92;;;0.60;;
71963;SDS011;59834;52.124;5.422;2023-07-29T13:02:36;1.73;;;0.43;;
71963;SDS011;59834;52.124;5.422;2023-07-29T13:05:02;1.00;;;0.40;;
71963;SDS011;59834;52.124;5.422;2023-07-29T13:07:30;1.40;;;0.50;;
71963;SDS011;59834;52.124;5.422;2023-07-29T13:09:56;1.20;;;0.35;;
71963;SDS011;59834;52.124;5.422;2023-07-29T13:12:23;1.13;;;0.45;;
71963;SDS011;59834;52.124;5.422;2023-07-29T13:14:50;1.63;;;0.50;;
71963;SDS011;59834;52.124;5.422;2023-07-29T13:17:16;0.93;;;0.30;;
71963;SDS011;59834;52.124;5.422;2023-07-29T13:19:43;1.40;;;0.40;;
71963;SDS011;59834;52.124;5.422;2023-07-29T13:22:10;1.17;;;0.52;;
71963;SDS011;59834;52.124;5.422;2023-07-29T13:24:36;1.00;;;0.50;;
71963;SDS011;59834;52.124;5.422;2023-07-29T13:27:03;0.80;;;0.50;;
71963;SDS011;59834;52.124;5.422;2023-07-29T13:29:30;1.75;;;0.30;;
71963;SDS011;59834;52.124;5.422;2023-07-29T13:31:57;0.88;;;0.30;;
71963;SDS011;59834;52.124;5.422;2023-07-29T13:34:26;0.80;;;0.22;;
71963;SDS011;59834;52.124;5.422;2023-07-29T13:36:53;0.60;;;0.30;;
71963;SDS011;59834;52.124;5.422;2023-07-29T13:39:19;0.93;;;0.23;;
71963;SDS011;59834;52.124;5.422;2023-07-29T13:41:46;1.13;;;0.22;;
71963;SDS011;59834;52.124;5.422;2023-07-29T13:44:13;1.10;;;0.40;;
71963;SDS011;59834;52.124;5.422;2023-07-29T13:46:39;0.93;;;0.30;;
71963;SDS011;59834;52.124;5.422;2023-07-29T13:49:06;0.80;;;0.30;;
71963;SDS011;59834;52.124;5.422;2023-07-29T13:51:33;1.23;;;0.40;;
71963;SDS011;59834;52.124;5.422;2023-07-29T13:54:00;0.90;;;0.30;;
71963;SDS011;59834;52.124;5.422;2023-07-29T13:56:26;0.98;;;0.40;;
71963;SDS011;59834;52.124;5.422;2023-07-29T13:58:53;0.80;;;0.40;;
71963;SDS011;59834;52.124;5.422;2023-07-29T14:01:20;1.15;;;0.40;;
71963;SDS011;59834;52.124;5.422;2023-07-29T14:03:46;1.43;;;0.40;;
71963;SDS011;59834;52.124;5.422;2023-07-29T14:06:13;1.10;;;0.45;;
71963;SDS011;59834;52.124;5.422;2023-07-29T14:08:39;1.42;;;0.45;;
71963;SDS011;59834;52.124;5.422;2023-07-29T14:11:08;2.95;;;0.40;;
71963;SDS011;59834;52.124;5.422;2023-07-29T14:13:35;1.52;;;0.50;;
71963;SDS011;59834;52.124;5.422;2023-07-29T14:16:02;1.43;;;0.40;;
71963;SDS011;59834;52.124;5.422;2023-07-29T14:18:30;0.85;;;0.38;;
71963;SDS011;59834;52.124;5.422;2023-07-29T14:20:57;2.33;;;0.50;;
71963;SDS011;59834;52.124;5.422;2023-07-29T14:23:23;2.15;;;0.50;;
71963;SDS011;59834;52.124;5.422;2023-07-29T14:25:50;0.80;;;0.32;;
71963;SDS011;59834;52.124;5.422;2023-07-29T14:28:16;2.33;;;0.50;;
71963;SDS011;59834;52.124;5.422;2023-07-29T14:30:43;1.67;;;0.52;;
71963;SDS011;59834;52.124;5.422;2023-07-29T14:33:16;1.92;;;0.55;;
71963;SDS011;59834;52.124;5.422;2023-07-29T14:35:52;2.35;;;0.38;;
71963;SDS011;59834;52.124;5.422;2023-07-29T14:38:24;0.98;;;0.50;;
71963;SDS011;59834;52.124;5.422;2023-07-29T14:40:52;1.17;;;0.40;;
71963;SDS011;59834;52.124;5.422;2023-07-29T14:43:20;0.60;;;0.30;;
71963;SDS011;59834;52.124;5.422;2023-07-29T14:45:47;1.65;;;0.40;;
71963;SDS011;59834;52.124;5.422;2023-07-29T14:48:14;1.63;;;0.30;;
71963;SDS011;59834;52.124;5.422;2023-07-29T14:50:40;1.42;;;0.50;;
71963;SDS011;59834;52.124;5.422;2023-07-29T14:53:07;1.07;;;0.30;;
71963;SDS011;59834;52.124;5.422;2023-07-29T14:55:34;1.08;;;0.60;;
71963;SDS011;59834;52.124;5.422;2023-07-29T14:58:01;0.82;;;0.30;;
71963;SDS011;59834;52.124;5.422;2023-07-29T15:00:28;1.00;;;0.20;;
71963;SDS011;59834;52.124;5.422;2023-07-29T15:02:55;1.08;;;0.30;;
71963;SDS011;59834;52.124;5.422;2023-07-29T15:05:22;3.40;;;0.30;;
71963;SDS011;59834;52.124;5.422;2023-07-29T15:07:49;0.70;;;0.20;;
71963;SDS011;59834;52.124;5.422;2023-07-29T15:10:16;0.77;;;0.30;;
71963;SDS011;59834;52.124;5.422;2023-07-29T15:12:44;0.65;;;0.20;;
71963;SDS011;59834;52.124;5.422;2023-07-29T15:15:11;2.72;;;0.30;;
71963;SDS011;59834;52.124;5.422;2023-07-29T15:17:38;2.40;;;0.23;;
71963;SDS011;59834;52.124;5.422;2023-07-29T15:20:05;2.05;;;0.30;;